sensor_id;sensor_type;location;lat;lon;timestamp;P1;durP1;ratioP1;P2;durP2;ratioP2
48550;SDS011;34397;51.176;6.738;2023-02-28T00:02:16;5.97;;;2.45;;
48550;SDS011;34397;51.176;6.738;2023-02-28T00:04:49;5.43;;;2.30;;
48550;SDS011;34397;51.176;6.738;2023-02-28T00:07:23;6.10;;;2.63;;
48550;SDS011;34397;51.176;6.738;2023-02-28T00:09:54;3.20;;;2.13;;
48550;SDS011;34397;51.176;6.738;2023-02-28T00:12:26;5.38;;;2.38;;
48550;SDS011;34397;51.176;6.738;2023-02-28T00:14:58;4.82;;;2.50;;
48550;SDS011;34397;51.176;6.738;2023-02-28T00:17:30;5.78;;;2.70;;
48550;SDS011;34397;51.176;6.738;2023-02-28T00:20:04;4.32;;;2.42;;
48550;SDS011;34397;51.176;6.738;2023-02-28T00:22:40;5.33;;;2.50;;
48550;SDS011;34397;51.176;6.738;2023-02-28T00:25:16;5.20;;;2.30;;
48550;SDS011;34397;51.176;6.738;2023-02-28T00:27:50;6.83;;;3.50;;
48550;SDS011;34397;51.176;6.738;2023-02-28T00:32:54;7.45;;;2.78;;
48550;SDS011;34397;51.176;6.738;2023-02-28T00:35:28;5.97;;;2.60;;
48550;SDS011;34397;51.176;6.738;2023-02-28T00:37:59;6.23;;;2.73;;
48550;SDS011;34397;51.176;6.738;2023-02-28T00:43:04;5.77;;;2.40;;
48550;SDS011;34397;51.176;6.738;2023-02-28T00:45:35;6.63;;;2.67;;
48550;SDS011;34397;51.176;6.738;2023-02-28T00:48:07;7.05;;;2.67;;
48550;SDS011;34397;51.176;6.738;2023-02-28T00:50:40;6.63;;;3.08;;
48550;SDS011;34397;51.176;6.738;2023-02-28T00:53:12;9.40;;;2.77;;
48550;SDS011;34397;51.176;6.738;2023-02-28T00:55:44;6.13;;;2.70;;
48550;SDS011;34397;51.176;6.738;2023-02-28T00:58:16;5.28;;;2.70;;
48550;SDS011;34397;51.176;6.738;2023-02-28T01:00:48;4.22;;;2.60;;
48550;SDS011;34397;51.176;6.738;2023-02-28T01:03:20;5.25;;;2.33;;
48550;SDS011;34397;51.176;6.738;2023-02-28T01:05:54;6.23;;;2.57;;
48550;SDS011;34397;51.176;6.738;2023-02-28T01:08:26;3.57;;;2.33;;
48550;SDS011;34397;51.176;6.738;2023-02-28T01:11:06;4.45;;;2.17;;
48550;SDS011;34397;51.176;6.738;2023-02-28T01:13:39;6.67;;;2.73;;
48550;SDS011;34397;51.176;6.738;2023-02-28T01:16:12;7.50;;;2.47;;
48550;SDS011;34397;51.176;6.738;2023-02-28T01:21:18;4.43;;;2.50;;
48550;SDS011;34397;51.176;6.738;2023-02-28T01:23:51;5.27;;;2.60;;
48550;SDS011;34397;51.176;6.738;2023-02-28T01:26:23;3.78;;;2.50;;
48550;SDS011;34397;51.176;6.738;2023-02-28T01:28:55;4.28;;;2.30;;
48550;SDS011;34397;51.176;6.738;2023-02-28T01:31:27;5.88;;;2.60;;
48550;SDS011;34397;51.176;6.738;2023-02-28T01:33:59;5.40;;;2.83;;
48550;SDS011;34397;51.176;6.738;2023-02-28T01:36:32;4.72;;;2.40;;
48550;SDS011;34397;51.176;6.738;2023-02-28T01:39:04;4.23;;;2.30;;
48550;SDS011;34397;51.176;6.738;2023-02-28T01:41:36;5.93;;;2.38;;
48550;SDS011;34397;51.176;6.738;2023-02-28T01:47:27;4.37;;;2.57;;
48550;SDS011;34397;51.176;6.738;2023-02-28T01:50:03;5.97;;;2.40;;
48550;SDS011;34397;51.176;6.738;2023-02-28T01:52:42;4.97;;;2.00;;
48550;SDS011;34397;51.176;6.738;2023-02-28T01:55:15;5.80;;;2.90;;
48550;SDS011;34397;51.176;6.738;2023-02-28T01:57:50;4.30;;;2.27;;
48550;SDS011;34397;51.176;6.738;2023-02-28T02:00:26;7.17;;;2.80;;
48550;SDS011;34397;51.176;6.738;2023-02-28T02:03:00;4.63;;;2.70;;
48550;SDS011;34397;51.176;6.738;2023-02-28T02:05:39;5.13;;;2.90;;
48550;SDS011;34397;51.176;6.738;2023-02-28T02:08:13;4.33;;;2.40;;
48550;SDS011;34397;51.176;6.738;2023-02-28T02:10:50;5.17;;;2.90;;
48550;SDS011;34397;51.176;6.738;2023-02-28T02:13:28;5.70;;;3.20;;
48550;SDS011;34397;51.176;6.738;2023-02-28T02:16:23;7.63;;;3.33;;
48550;SDS011;34397;51.176;6.738;2023-02-28T02:19:14;6.87;;;3.30;;
48550;SDS011;34397;51.176;6.738;2023-02-28T02:25:34;4.77;;;2.77;;
48550;SDS011;34397;51.176;6.738;2023-02-28T02:28:21;5.83;;;2.83;;
48550;SDS011;34397;51.176;6.738;2023-02-28T02:34:39;6.83;;;3.13;;
48550;SDS011;34397;51.176;6.738;2023-02-28T02:37:23;7.27;;;3.00;;
48550;SDS011;34397;51.176;6.738;2023-02-28T02:40:03;6.97;;;3.10;;
48550;SDS011;34397;51.176;6.738;2023-02-28T02:42:44;8.77;;;3.47;;
48550;SDS011;34397;51.176;6.738;2023-02-28T02:45:22;4.40;;;2.93;;
48550;SDS011;34397;51.176;6.738;2023-02-28T02:47:58;7.90;;;2.90;;
48550;SDS011;34397;51.176;6.738;2023-02-28T02:50:33;7.33;;;2.83;;
48550;SDS011;34397;51.176;6.738;2023-02-28T02:53:09;5.40;;;2.83;;
48550;SDS011;34397;51.176;6.738;2023-02-28T02:55:43;4.70;;;3.10;;
48550;SDS011;34397;51.176;6.738;2023-02-28T02:58:24;6.27;;;3.00;;
48550;SDS011;34397;51.176;6.738;2023-02-28T03:01:00;6.27;;;3.20;;
48550;SDS011;34397;51.176;6.738;2023-02-28T03:03:34;7.50;;;3.17;;
48550;SDS011;34397;51.176;6.738;2023-02-28T03:06:08;6.05;;;2.92;;
48550;SDS011;34397;51.176;6.738;2023-02-28T03:08:40;5.40;;;3.03;;
48550;SDS011;34397;51.176;6.738;2023-02-28T03:11:12;7.22;;;3.08;;
48550;SDS011;34397;51.176;6.738;2023-02-28T03:14:05;7.30;;;3.20;;
48550;SDS011;34397;51.176;6.738;2023-02-28T03:17:11;6.67;;;3.70;;
48550;SDS011;34397;51.176;6.738;2023-02-28T03:20:23;6.00;;;3.00;;
48550;SDS011;34397;51.176;6.738;2023-02-28T03:23:12;8.50;;;3.17;;
48550;SDS011;34397;51.176;6.738;2023-02-28T03:25:52;8.23;;;2.73;;
48550;SDS011;34397;51.176;6.738;2023-02-28T03:28:30;5.23;;;2.60;;
48550;SDS011;34397;51.176;6.738;2023-02-28T03:31:09;6.43;;;2.87;;
48550;SDS011;34397;51.176;6.738;2023-02-28T03:33:46;5.57;;;3.20;;
48550;SDS011;34397;51.176;6.738;2023-02-28T03:36:29;7.28;;;3.35;;
48550;SDS011;34397;51.176;6.738;2023-02-28T03:39:08;7.43;;;3.20;;
48550;SDS011;34397;51.176;6.738;2023-02-28T03:41:44;6.77;;;3.27;;
48550;SDS011;34397;51.176;6.738;2023-02-28T03:44:23;5.87;;;3.40;;
48550;SDS011;34397;51.176;6.738;2023-02-28T03:47:00;6.40;;;3.33;;
48550;SDS011;34397;51.176;6.738;2023-02-28T03:49:39;9.87;;;3.40;;
48550;SDS011;34397;51.176;6.738;2023-02-28T03:52:14;5.27;;;3.43;;
48550;SDS011;34397;51.176;6.738;2023-02-28T03:54:52;6.20;;;3.00;;
48550;SDS011;34397;51.176;6.738;2023-02-28T03:57:32;4.90;;;2.43;;
48550;SDS011;34397;51.176;6.738;2023-02-28T04:00:09;4.47;;;2.80;;
48550;SDS011;34397;51.176;6.738;2023-02-28T04:02:46;6.20;;;3.10;;
48550;SDS011;34397;51.176;6.738;2023-02-28T04:05:22;8.90;;;2.63;;
48550;SDS011;34397;51.176;6.738;2023-02-28T04:08:02;5.07;;;2.60;;
48550;SDS011;34397;51.176;6.738;2023-02-28T04:10:36;7.43;;;3.10;;
48550;SDS011;34397;51.176;6.738;2023-02-28T04:13:08;4.97;;;2.47;;
48550;SDS011;34397;51.176;6.738;2023-02-28T04:15:40;7.88;;;2.83;;
48550;SDS011;34397;51.176;6.738;2023-02-28T04:18:12;4.53;;;2.85;;
48550;SDS011;34397;51.176;6.738;2023-02-28T04:20:44;4.15;;;2.70;;
48550;SDS011;34397;51.176;6.738;2023-02-28T04:23:15;5.47;;;2.83;;
48550;SDS011;34397;51.176;6.738;2023-02-28T04:25:48;4.93;;;2.88;;
48550;SDS011;34397;51.176;6.738;2023-02-28T04:28:21;4.43;;;2.50;;
48550;SDS011;34397;51.176;6.738;2023-02-28T04:30:55;6.15;;;2.58;;
48550;SDS011;34397;51.176;6.738;2023-02-28T04:33:28;3.77;;;2.50;;
48550;SDS011;34397;51.176;6.738;2023-02-28T04:36:03;5.93;;;2.83;;
48550;SDS011;34397;51.176;6.738;2023-02-28T04:38:38;5.13;;;2.87;;
48550;SDS011;34397;51.176;6.738;2023-02-28T04:41:11;6.65;;;2.72;;
48550;SDS011;34397;51.176;6.738;2023-02-28T04:43:44;5.43;;;2.47;;
48550;SDS011;34397;51.176;6.738;2023-02-28T04:46:15;5.78;;;2.20;;
48550;SDS011;34397;51.176;6.738;2023-02-28T04:51:20;5.33;;;2.50;;
48550;SDS011;34397;51.176;6.738;2023-02-28T04:53:52;3.28;;;2.30;;
48550;SDS011;34397;51.176;6.738;2023-02-28T04:56:25;4.28;;;2.67;;
48550;SDS011;34397;51.176;6.738;2023-02-28T04:58:57;5.43;;;2.50;;
48550;SDS011;34397;51.176;6.738;2023-02-28T05:01:29;6.28;;;2.75;;
48550;SDS011;34397;51.176;6.738;2023-02-28T05:04:03;5.63;;;2.97;;
48550;SDS011;34397;51.176;6.738;2023-02-28T05:06:35;4.72;;;2.42;;
48550;SDS011;34397;51.176;6.738;2023-02-28T05:09:07;6.40;;;2.88;;
48550;SDS011;34397;51.176;6.738;2023-02-28T05:11:42;4.77;;;2.73;;
48550;SDS011;34397;51.176;6.738;2023-02-28T05:14:14;5.33;;;2.47;;
48550;SDS011;34397;51.176;6.738;2023-02-28T05:16:46;3.35;;;2.13;;
48550;SDS011;34397;51.176;6.738;2023-02-28T05:19:18;3.75;;;1.90;;
48550;SDS011;34397;51.176;6.738;2023-02-28T05:21:51;5.33;;;2.40;;
48550;SDS011;34397;51.176;6.738;2023-02-28T05:24:25;4.40;;;2.40;;
48550;SDS011;34397;51.176;6.738;2023-02-28T05:26:58;4.72;;;2.45;;
48550;SDS011;34397;51.176;6.738;2023-02-28T05:29:33;3.67;;;2.30;;
48550;SDS011;34397;51.176;6.738;2023-02-28T05:32:12;5.03;;;2.60;;
48550;SDS011;34397;51.176;6.738;2023-02-28T05:34:45;4.80;;;2.37;;
48550;SDS011;34397;51.176;6.738;2023-02-28T05:37:17;4.22;;;2.10;;
48550;SDS011;34397;51.176;6.738;2023-02-28T05:39:49;4.32;;;2.20;;
48550;SDS011;34397;51.176;6.738;2023-02-28T05:42:22;4.75;;;2.42;;
48550;SDS011;34397;51.176;6.738;2023-02-28T05:44:54;3.60;;;2.40;;
48550;SDS011;34397;51.176;6.738;2023-02-28T05:47:25;7.25;;;2.65;;
48550;SDS011;34397;51.176;6.738;2023-02-28T05:49:57;4.35;;;2.33;;
48550;SDS011;34397;51.176;6.738;2023-02-28T05:52:30;4.88;;;2.17;;
48550;SDS011;34397;51.176;6.738;2023-02-28T05:55:02;3.40;;;2.17;;
48550;SDS011;34397;51.176;6.738;2023-02-28T06:02:41;7.03;;;2.70;;
48550;SDS011;34397;51.176;6.738;2023-02-28T06:05:14;4.90;;;2.15;;
48550;SDS011;34397;51.176;6.738;2023-02-28T06:07:47;5.80;;;2.10;;
48550;SDS011;34397;51.176;6.738;2023-02-28T06:10:19;3.63;;;2.38;;
48550;SDS011;34397;51.176;6.738;2023-02-28T06:12:52;5.45;;;2.58;;
48550;SDS011;34397;51.176;6.738;2023-02-28T06:15:24;7.97;;;2.60;;
48550;SDS011;34397;51.176;6.738;2023-02-28T06:17:56;4.20;;;2.38;;
48550;SDS011;34397;51.176;6.738;2023-02-28T06:20:28;3.72;;;2.45;;
48550;SDS011;34397;51.176;6.738;2023-02-28T06:23:00;4.35;;;2.63;;
48550;SDS011;34397;51.176;6.738;2023-02-28T06:25:32;4.83;;;2.40;;
48550;SDS011;34397;51.176;6.738;2023-02-28T06:28:05;5.63;;;2.10;;
48550;SDS011;34397;51.176;6.738;2023-02-28T06:30:37;5.10;;;2.23;;
48550;SDS011;34397;51.176;6.738;2023-02-28T06:33:09;4.13;;;2.72;;
48550;SDS011;34397;51.176;6.738;2023-02-28T06:35:43;4.60;;;2.72;;
48550;SDS011;34397;51.176;6.738;2023-02-28T06:38:15;10.30;;;2.60;;
48550;SDS011;34397;51.176;6.738;2023-02-28T06:40:52;8.57;;;3.03;;
48550;SDS011;34397;51.176;6.738;2023-02-28T06:43:27;4.57;;;2.70;;
48550;SDS011;34397;51.176;6.738;2023-02-28T06:46:03;6.00;;;2.40;;
48550;SDS011;34397;51.176;6.738;2023-02-28T06:48:38;5.30;;;2.20;;
48550;SDS011;34397;51.176;6.738;2023-02-28T06:51:11;2.97;;;1.80;;
48550;SDS011;34397;51.176;6.738;2023-02-28T06:53:45;5.90;;;2.37;;
48550;SDS011;34397;51.176;6.738;2023-02-28T06:56:18;3.28;;;2.22;;
48550;SDS011;34397;51.176;6.738;2023-02-28T06:58:52;8.23;;;2.23;;
48550;SDS011;34397;51.176;6.738;2023-02-28T07:01:24;5.83;;;2.53;;
48550;SDS011;34397;51.176;6.738;2023-02-28T07:03:57;4.37;;;2.03;;
48550;SDS011;34397;51.176;6.738;2023-02-28T07:06:30;5.17;;;2.57;;
48550;SDS011;34397;51.176;6.738;2023-02-28T07:11:35;3.33;;;2.00;;
48550;SDS011;34397;51.176;6.738;2023-02-28T07:14:08;4.65;;;1.90;;
48550;SDS011;34397;51.176;6.738;2023-02-28T07:16:40;4.50;;;2.10;;
48550;SDS011;34397;51.176;6.738;2023-02-28T07:19:12;3.10;;;2.22;;
48550;SDS011;34397;51.176;6.738;2023-02-28T07:21:43;4.45;;;2.13;;
48550;SDS011;34397;51.176;6.738;2023-02-28T07:24:15;3.00;;;2.05;;
48550;SDS011;34397;51.176;6.738;2023-02-28T07:26:47;4.88;;;2.25;;
48550;SDS011;34397;51.176;6.738;2023-02-28T07:29:21;4.40;;;2.30;;
48550;SDS011;34397;51.176;6.738;2023-02-28T07:31:53;3.57;;;2.20;;
48550;SDS011;34397;51.176;6.738;2023-02-28T07:34:25;4.88;;;1.73;;
48550;SDS011;34397;51.176;6.738;2023-02-28T07:36:56;3.63;;;1.85;;
48550;SDS011;34397;51.176;6.738;2023-02-28T07:39:29;3.75;;;2.05;;
48550;SDS011;34397;51.176;6.738;2023-02-28T07:42:03;7.13;;;2.20;;
48550;SDS011;34397;51.176;6.738;2023-02-28T07:44:37;4.37;;;2.47;;
48550;SDS011;34397;51.176;6.738;2023-02-28T07:47:10;4.27;;;2.07;;
48550;SDS011;34397;51.176;6.738;2023-02-28T07:49:42;2.75;;;1.90;;
48550;SDS011;34397;51.176;6.738;2023-02-28T07:52:14;5.13;;;1.63;;
48550;SDS011;34397;51.176;6.738;2023-02-28T07:54:45;4.05;;;2.00;;
48550;SDS011;34397;51.176;6.738;2023-02-28T07:57:17;2.92;;;2.05;;
48550;SDS011;34397;51.176;6.738;2023-02-28T07:59:51;4.32;;;1.80;;
48550;SDS011;34397;51.176;6.738;2023-02-28T08:02:22;3.97;;;2.13;;
48550;SDS011;34397;51.176;6.738;2023-02-28T08:04:54;6.40;;;3.13;;
48550;SDS011;34397;51.176;6.738;2023-02-28T08:07:26;5.57;;;2.90;;
48550;SDS011;34397;51.176;6.738;2023-02-28T08:09:58;3.95;;;2.63;;
48550;SDS011;34397;51.176;6.738;2023-02-28T08:12:30;5.07;;;2.47;;
48550;SDS011;34397;51.176;6.738;2023-02-28T08:15:04;4.50;;;2.20;;
48550;SDS011;34397;51.176;6.738;2023-02-28T08:17:37;4.70;;;2.23;;
48550;SDS011;34397;51.176;6.738;2023-02-28T08:20:10;3.35;;;1.80;;
48550;SDS011;34397;51.176;6.738;2023-02-28T08:22:43;3.33;;;1.80;;
48550;SDS011;34397;51.176;6.738;2023-02-28T08:25:15;3.40;;;1.77;;
48550;SDS011;34397;51.176;6.738;2023-02-28T08:27:49;2.15;;;1.67;;
48550;SDS011;34397;51.176;6.738;2023-02-28T08:30:23;2.87;;;1.80;;
48550;SDS011;34397;51.176;6.738;2023-02-28T08:32:55;3.20;;;1.73;;
48550;SDS011;34397;51.176;6.738;2023-02-28T08:35:27;4.32;;;1.60;;
48550;SDS011;34397;51.176;6.738;2023-02-28T08:37:58;2.47;;;1.50;;
48550;SDS011;34397;51.176;6.738;2023-02-28T08:40:30;2.85;;;1.40;;
48550;SDS011;34397;51.176;6.738;2023-02-28T08:43:02;2.72;;;1.20;;
48550;SDS011;34397;51.176;6.738;2023-02-28T08:45:35;3.35;;;1.40;;
48550;SDS011;34397;51.176;6.738;2023-02-28T08:48:07;2.50;;;1.23;;
48550;SDS011;34397;51.176;6.738;2023-02-28T08:50:39;2.95;;;1.20;;
48550;SDS011;34397;51.176;6.738;2023-02-28T08:53:11;2.10;;;1.20;;
48550;SDS011;34397;51.176;6.738;2023-02-28T08:55:43;11.15;;;1.70;;
48550;SDS011;34397;51.176;6.738;2023-02-28T09:00:49;2.10;;;1.00;;
48550;SDS011;34397;51.176;6.738;2023-02-28T09:03:22;2.60;;;1.20;;
48550;SDS011;34397;51.176;6.738;2023-02-28T09:05:55;2.17;;;1.10;;
48550;SDS011;34397;51.176;6.738;2023-02-28T09:08:29;3.30;;;1.20;;
48550;SDS011;34397;51.176;6.738;2023-02-28T09:11:02;1.80;;;1.30;;
48550;SDS011;34397;51.176;6.738;2023-02-28T09:13:34;1.77;;;1.10;;
48550;SDS011;34397;51.176;6.738;2023-02-28T09:18:43;2.50;;;1.10;;
48550;SDS011;34397;51.176;6.738;2023-02-28T09:23:50;2.67;;;0.93;;
48550;SDS011;34397;51.176;6.738;2023-02-28T09:26:23;2.17;;;1.20;;
48550;SDS011;34397;51.176;6.738;2023-02-28T09:28:58;1.87;;;0.80;;
48550;SDS011;34397;51.176;6.738;2023-02-28T09:31:31;3.28;;;1.10;;
48550;SDS011;34397;51.176;6.738;2023-02-28T09:34:03;2.07;;;1.03;;
48550;SDS011;34397;51.176;6.738;2023-02-28T09:36:35;1.38;;;0.80;;
48550;SDS011;34397;51.176;6.738;2023-02-28T09:39:08;2.20;;;1.10;;
48550;SDS011;34397;51.176;6.738;2023-02-28T09:41:40;2.10;;;1.02;;
48550;SDS011;34397;51.176;6.738;2023-02-28T09:44:20;1.97;;;1.00;;
48550;SDS011;34397;51.176;6.738;2023-02-28T09:47:01;2.67;;;1.20;;
48550;SDS011;34397;51.176;6.738;2023-02-28T09:49:43;2.43;;;1.17;;
48550;SDS011;34397;51.176;6.738;2023-02-28T09:52:19;2.43;;;1.00;;
48550;SDS011;34397;51.176;6.738;2023-02-28T09:54:58;3.97;;;1.20;;
48550;SDS011;34397;51.176;6.738;2023-02-28T09:57:36;3.10;;;1.40;;
48550;SDS011;34397;51.176;6.738;2023-02-28T10:00:13;3.03;;;1.10;;
48550;SDS011;34397;51.176;6.738;2023-02-28T10:02:53;3.53;;;1.07;;
48550;SDS011;34397;51.176;6.738;2023-02-28T10:05:36;1.17;;;0.80;;
48550;SDS011;34397;51.176;6.738;2023-02-28T10:08:13;1.77;;;0.90;;
48550;SDS011;34397;51.176;6.738;2023-02-28T10:10:48;4.60;;;1.10;;
48550;SDS011;34397;51.176;6.738;2023-02-28T10:13:26;1.73;;;1.10;;
48550;SDS011;34397;51.176;6.738;2023-02-28T10:16:05;1.73;;;1.03;;
48550;SDS011;34397;51.176;6.738;2023-02-28T10:18:46;3.17;;;1.17;;
48550;SDS011;34397;51.176;6.738;2023-02-28T10:21:24;1.53;;;1.00;;
48550;SDS011;34397;51.176;6.738;2023-02-28T10:24:02;2.70;;;1.00;;
48550;SDS011;34397;51.176;6.738;2023-02-28T10:26:45;1.27;;;0.90;;
48550;SDS011;34397;51.176;6.738;2023-02-28T10:29:18;2.20;;;1.00;;
48550;SDS011;34397;51.176;6.738;2023-02-28T10:31:51;1.58;;;0.90;;
48550;SDS011;34397;51.176;6.738;2023-02-28T10:34:24;2.05;;;0.95;;
48550;SDS011;34397;51.176;6.738;2023-02-28T10:36:57;1.27;;;0.80;;
48550;SDS011;34397;51.176;6.738;2023-02-28T10:39:38;1.60;;;1.00;;
48550;SDS011;34397;51.176;6.738;2023-02-28T10:42:19;1.50;;;0.90;;
48550;SDS011;34397;51.176;6.738;2023-02-28T10:45:09;4.60;;;1.50;;
48550;SDS011;34397;51.176;6.738;2023-02-28T10:47:51;1.63;;;1.08;;
48550;SDS011;34397;51.176;6.738;2023-02-28T10:50:39;2.23;;;1.20;;
48550;SDS011;34397;51.176;6.738;2023-02-28T10:53:16;1.75;;;0.70;;
48550;SDS011;34397;51.176;6.738;2023-02-28T10:56:03;3.25;;;1.20;;
48550;SDS011;34397;51.176;6.738;2023-02-28T10:58:48;1.83;;;1.15;;
48550;SDS011;34397;51.176;6.738;2023-02-28T11:01:24;1.85;;;1.00;;
48550;SDS011;34397;51.176;6.738;2023-02-28T11:04:17;1.50;;;1.02;;
48550;SDS011;34397;51.176;6.738;2023-02-28T11:06:57;2.17;;;0.90;;
48550;SDS011;34397;51.176;6.738;2023-02-28T11:09:32;1.50;;;0.80;;
48550;SDS011;34397;51.176;6.738;2023-02-28T11:12:07;1.70;;;0.90;;
48550;SDS011;34397;51.176;6.738;2023-02-28T11:14:55;5.07;;;1.15;;
48550;SDS011;34397;51.176;6.738;2023-02-28T11:17:30;2.55;;;1.30;;
48550;SDS011;34397;51.176;6.738;2023-02-28T11:20:04;1.63;;;1.17;;
48550;SDS011;34397;51.176;6.738;2023-02-28T11:22:43;1.88;;;1.10;;
48550;SDS011;34397;51.176;6.738;2023-02-28T11:25:19;1.77;;;1.08;;
48550;SDS011;34397;51.176;6.738;2023-02-28T11:27:55;1.95;;;1.20;;
48550;SDS011;34397;51.176;6.738;2023-02-28T11:30:35;2.40;;;1.00;;
48550;SDS011;34397;51.176;6.738;2023-02-28T11:33:19;1.67;;;1.10;;
48550;SDS011;34397;51.176;6.738;2023-02-28T11:36:01;1.92;;;0.98;;
48550;SDS011;34397;51.176;6.738;2023-02-28T11:38:41;3.10;;;1.48;;
48550;SDS011;34397;51.176;6.738;2023-02-28T11:44:22;1.60;;;1.10;;
48550;SDS011;34397;51.176;6.738;2023-02-28T11:47:08;1.40;;;1.10;;
48550;SDS011;34397;51.176;6.738;2023-02-28T11:49:50;1.92;;;1.20;;
48550;SDS011;34397;51.176;6.738;2023-02-28T11:52:40;6.30;;;1.38;;
48550;SDS011;34397;51.176;6.738;2023-02-28T11:55:23;1.25;;;1.10;;
48550;SDS011;34397;51.176;6.738;2023-02-28T11:58:08;1.83;;;1.30;;
48550;SDS011;34397;51.176;6.738;2023-02-28T12:00:57;2.05;;;1.30;;
48550;SDS011;34397;51.176;6.738;2023-02-28T12:03:49;1.67;;;1.13;;
48550;SDS011;34397;51.176;6.738;2023-02-28T12:06:36;1.65;;;1.23;;
48550;SDS011;34397;51.176;6.738;2023-02-28T12:12:21;1.97;;;1.27;;
48550;SDS011;34397;51.176;6.738;2023-02-28T12:18:20;1.80;;;1.13;;
48550;SDS011;34397;51.176;6.738;2023-02-28T12:21:18;5.50;;;1.25;;
48550;SDS011;34397;51.176;6.738;2023-02-28T12:24:04;1.40;;;1.00;;
48550;SDS011;34397;51.176;6.738;2023-02-28T12:26:59;2.20;;;1.20;;
48550;SDS011;34397;51.176;6.738;2023-02-28T12:29:37;2.42;;;1.25;;
48550;SDS011;34397;51.176;6.738;2023-02-28T12:32:16;1.52;;;1.27;;
48550;SDS011;34397;51.176;6.738;2023-02-28T12:34:55;1.52;;;1.13;;
48550;SDS011;34397;51.176;6.738;2023-02-28T12:37:33;2.17;;;1.10;;
48550;SDS011;34397;51.176;6.738;2023-02-28T12:40:12;1.10;;;1.00;;
48550;SDS011;34397;51.176;6.738;2023-02-28T12:42:48;2.03;;;1.20;;
48550;SDS011;34397;51.176;6.738;2023-02-28T12:45:25;1.75;;;1.20;;
48550;SDS011;34397;51.176;6.738;2023-02-28T12:48:06;1.92;;;1.30;;
48550;SDS011;34397;51.176;6.738;2023-02-28T12:50:43;2.90;;;0.95;;
48550;SDS011;34397;51.176;6.738;2023-02-28T12:55:56;1.73;;;1.20;;
48550;SDS011;34397;51.176;6.738;2023-02-28T12:58:41;2.97;;;1.20;;
48550;SDS011;34397;51.176;6.738;2023-02-28T13:01:33;2.40;;;1.20;;
48550;SDS011;34397;51.176;6.738;2023-02-28T13:04:32;3.38;;;1.60;;
48550;SDS011;34397;51.176;6.738;2023-02-28T13:07:28;1.77;;;1.17;;
48550;SDS011;34397;51.176;6.738;2023-02-28T13:10:40;1.90;;;1.30;;
48550;SDS011;34397;51.176;6.738;2023-02-28T13:13:16;4.57;;;1.50;;
48550;SDS011;34397;51.176;6.738;2023-02-28T13:15:56;1.83;;;1.40;;
48550;SDS011;34397;51.176;6.738;2023-02-28T13:18:34;2.38;;;1.30;;
48550;SDS011;34397;51.176;6.738;2023-02-28T13:21:17;2.10;;;1.48;;
48550;SDS011;34397;51.176;6.738;2023-02-28T13:24:01;2.75;;;1.30;;
48550;SDS011;34397;51.176;6.738;2023-02-28T13:33:36;4.03;;;1.50;;
48550;SDS011;34397;51.176;6.738;2023-02-28T13:36:44;2.78;;;1.48;;
48550;SDS011;34397;51.176;6.738;2023-02-28T13:42:31;2.28;;;1.25;;
48550;SDS011;34397;51.176;6.738;2023-02-28T13:45:20;1.52;;;1.20;;
48550;SDS011;34397;51.176;6.738;2023-02-28T13:47:59;1.70;;;1.30;;
48550;SDS011;34397;51.176;6.738;2023-02-28T13:50:35;2.85;;;1.40;;
48550;SDS011;34397;51.176;6.738;2023-02-28T13:53:24;1.73;;;1.10;;
48550;SDS011;34397;51.176;6.738;2023-02-28T13:56:28;2.10;;;1.50;;
48550;SDS011;34397;51.176;6.738;2023-02-28T13:59:16;2.15;;;1.40;;
48550;SDS011;34397;51.176;6.738;2023-02-28T14:02:00;2.33;;;1.33;;
48550;SDS011;34397;51.176;6.738;2023-02-28T14:05:02;3.20;;;1.40;;
48550;SDS011;34397;51.176;6.738;2023-02-28T14:07:40;2.45;;;1.40;;
48550;SDS011;34397;51.176;6.738;2023-02-28T14:10:22;1.67;;;1.38;;
48550;SDS011;34397;51.176;6.738;2023-02-28T14:13:02;2.05;;;1.30;;
48550;SDS011;34397;51.176;6.738;2023-02-28T14:15:47;3.03;;;1.67;;
48550;SDS011;34397;51.176;6.738;2023-02-28T14:18:28;2.25;;;1.20;;
48550;SDS011;34397;51.176;6.738;2023-02-28T14:21:08;1.52;;;1.20;;
48550;SDS011;34397;51.176;6.738;2023-02-28T14:27:21;2.08;;;1.42;;
48550;SDS011;34397;51.176;6.738;2023-02-28T14:30:11;2.22;;;1.52;;
48550;SDS011;34397;51.176;6.738;2023-02-28T14:33:04;2.58;;;1.50;;
48550;SDS011;34397;51.176;6.738;2023-02-28T14:36:03;2.20;;;1.40;;
48550;SDS011;34397;51.176;6.738;2023-02-28T14:38:43;4.00;;;1.92;;
48550;SDS011;34397;51.176;6.738;2023-02-28T14:41:21;3.47;;;1.90;;
48550;SDS011;34397;51.176;6.738;2023-02-28T14:43:56;3.08;;;1.40;;
48550;SDS011;34397;51.176;6.738;2023-02-28T14:46:32;8.55;;;3.05;;
48550;SDS011;34397;51.176;6.738;2023-02-28T14:49:17;1.65;;;1.45;;
48550;SDS011;34397;51.176;6.738;2023-02-28T14:52:00;1.88;;;1.50;;
48550;SDS011;34397;51.176;6.738;2023-02-28T14:54:39;2.40;;;1.50;;
48550;SDS011;34397;51.176;6.738;2023-02-28T14:57:21;8.88;;;1.50;;
48550;SDS011;34397;51.176;6.738;2023-02-28T15:00:03;2.45;;;1.60;;
48550;SDS011;34397;51.176;6.738;2023-02-28T15:02:43;2.38;;;1.48;;
48550;SDS011;34397;51.176;6.738;2023-02-28T15:05:19;3.55;;;1.60;;
48550;SDS011;34397;51.176;6.738;2023-02-28T15:08:06;5.28;;;1.80;;
48550;SDS011;34397;51.176;6.738;2023-02-28T15:10:43;2.15;;;1.40;;
48550;SDS011;34397;51.176;6.738;2023-02-28T15:13:22;3.35;;;1.40;;
48550;SDS011;34397;51.176;6.738;2023-02-28T15:15:58;2.65;;;1.50;;
48550;SDS011;34397;51.176;6.738;2023-02-28T15:18:35;2.28;;;1.40;;
48550;SDS011;34397;51.176;6.738;2023-02-28T15:21:16;2.65;;;1.40;;
48550;SDS011;34397;51.176;6.738;2023-02-28T15:23:52;3.35;;;1.55;;
48550;SDS011;34397;51.176;6.738;2023-02-28T15:26:27;2.05;;;1.38;;
48550;SDS011;34397;51.176;6.738;2023-02-28T15:29:05;2.55;;;1.70;;
48550;SDS011;34397;51.176;6.738;2023-02-28T15:31:44;3.40;;;1.95;;
48550;SDS011;34397;51.176;6.738;2023-02-28T15:34:20;2.83;;;1.65;;
48550;SDS011;34397;51.176;6.738;2023-02-28T15:36:55;1.92;;;1.50;;
48550;SDS011;34397;51.176;6.738;2023-02-28T15:39:28;3.53;;;1.95;;
48550;SDS011;34397;51.176;6.738;2023-02-28T15:42:09;2.97;;;1.75;;
48550;SDS011;34397;51.176;6.738;2023-02-28T15:44:43;9.65;;;1.88;;
48550;SDS011;34397;51.176;6.738;2023-02-28T15:47:16;2.72;;;1.80;;
48550;SDS011;34397;51.176;6.738;2023-02-28T15:49:51;3.25;;;1.90;;
48550;SDS011;34397;51.176;6.738;2023-02-28T15:52:27;5.10;;;1.85;;
48550;SDS011;34397;51.176;6.738;2023-02-28T15:55:08;2.53;;;1.73;;
48550;SDS011;34397;51.176;6.738;2023-02-28T15:57:43;2.08;;;1.52;;
48550;SDS011;34397;51.176;6.738;2023-02-28T16:00:20;5.03;;;1.92;;
48550;SDS011;34397;51.176;6.738;2023-02-28T16:02:54;3.17;;;1.67;;
48550;SDS011;34397;51.176;6.738;2023-02-28T16:05:26;4.32;;;1.67;;
48550;SDS011;34397;51.176;6.738;2023-02-28T16:08:06;2.45;;;1.65;;
48550;SDS011;34397;51.176;6.738;2023-02-28T16:10:45;2.97;;;1.70;;
48550;SDS011;34397;51.176;6.738;2023-02-28T16:15:51;3.67;;;2.30;;
48550;SDS011;34397;51.176;6.738;2023-02-28T16:18:24;2.85;;;1.80;;
48550;SDS011;34397;51.176;6.738;2023-02-28T16:20:56;2.72;;;1.67;;
48550;SDS011;34397;51.176;6.738;2023-02-28T16:23:28;2.60;;;1.90;;
48550;SDS011;34397;51.176;6.738;2023-02-28T16:25:59;4.45;;;1.90;;
48550;SDS011;34397;51.176;6.738;2023-02-28T16:28:32;2.80;;;1.80;;
48550;SDS011;34397;51.176;6.738;2023-02-28T16:31:07;3.03;;;1.77;;
48550;SDS011;34397;51.176;6.738;2023-02-28T16:33:46;3.05;;;2.10;;
48550;SDS011;34397;51.176;6.738;2023-02-28T16:36:20;3.05;;;1.83;;
48550;SDS011;34397;51.176;6.738;2023-02-28T16:38:55;3.22;;;2.00;;
48550;SDS011;34397;51.176;6.738;2023-02-28T16:41:27;3.42;;;1.83;;
48550;SDS011;34397;51.176;6.738;2023-02-28T16:44:00;3.80;;;2.10;;
48550;SDS011;34397;51.176;6.738;2023-02-28T16:46:46;3.15;;;1.80;;
48550;SDS011;34397;51.176;6.738;2023-02-28T16:49:18;3.35;;;1.80;;
48550;SDS011;34397;51.176;6.738;2023-02-28T16:51:50;4.57;;;1.98;;